sensor_id;sensor_type;location;lat;lon;timestamp;pressure;altitude;pressure_sealevel;temperature;humidity
20105;BME280;10212;42.714;23.310;2023-01-10T00:04:49;94437.84;;;1.79;100.00
20105;BME280;10212;42.714;23.310;2023-01-10T00:14:49;94419.56;;;1.65;100.00
20105;BME280;10212;42.714;23.310;2023-01-10T00:24:50;94428.09;;;1.66;100.00
20105;BME280;10212;42.714;23.310;2023-01-10T00:34:51;94420.19;;;1.76;100.00
20105;BME280;10212;42.714;23.310;2023-01-10T00:44:51;94383.25;;;1.77;100.00
20105;BME280;10212;42.714;23.310;2023-01-10T00:54:52;94387.91;;;1.65;100.00
20105;BME280;10212;42.714;23.310;2023-01-10T01:04:52;94372.63;;;1.72;100.00
20105;BME280;10212;42.714;23.310;2023-01-10T01:14:52;94377.47;;;1.75;100.00
20105;BME280;10212;42.714;23.310;2023-01-10T01:24:53;94380.00;;;1.83;100.00
20105;BME280;10212;42.714;23.310;2023-01-10T01:34:53;94316.06;;;1.80;100.00
20105;BME280;10212;42.714;23.310;2023-01-10T01:55:13;94379.66;;;1.86;100.00
20105;BME280;10212;42.714;23.310;2023-01-10T02:05:15;94353.31;;;1.84;100.00
20105;BME280;10212;42.714;23.310;2023-01-10T02:15:17;94347.34;;;1.92;100.00
20105;BME280;10212;42.714;23.310;2023-01-10T02:25:25;94297.81;;;1.98;100.00
20105;BME280;10212;42.714;23.310;2023-01-10T02:36:01;94280.97;;;1.96;100.00
20105;BME280;10212;42.714;23.310;2023-01-10T02:46:08;94305.50;;;2.07;100.00
20105;BME280;10212;42.714;23.310;2023-01-10T03:06:51;94320.28;;;2.04;100.00
20105;BME280;10212;42.714;23.310;2023-01-10T03:16:59;94348.75;;;2.03;100.00
20105;BME280;10212;42.714;23.310;2023-01-10T03:47:53;94304.44;;;2.48;99.10
20105;BME280;10212;42.714;23.310;2023-01-10T03:57:55;94284.75;;;2.55;98.54
20105;BME280;10212;42.714;23.310;2023-01-10T04:07:56;94232.88;;;2.28;99.80
20105;BME280;10212;42.714;23.310;2023-01-10T04:17:56;94213.41;;;2.25;100.00
20105;BME280;10212;42.714;23.310;2023-01-10T04:27:57;94281.56;;;2.29;100.00
20105;BME280;10212;42.714;23.310;2023-01-10T04:37:57;94300.03;;;2.57;99.18
20105;BME280;10212;42.714;23.310;2023-01-10T04:47:58;94307.47;;;2.75;98.25
20105;BME280;10212;42.714;23.310;2023-01-10T04:58:01;94263.41;;;2.70;96.95
20105;BME280;10212;42.714;23.310;2023-01-10T05:08:01;94267.94;;;2.68;97.74
20105;BME280;10212;42.714;23.310;2023-01-10T05:18:01;94257.84;;;2.81;97.40
20105;BME280;10212;42.714;23.310;2023-01-10T05:28:02;94251.00;;;2.73;96.92
20105;BME280;10212;42.714;23.310;2023-01-10T05:38:02;94248.44;;;2.88;97.38
20105;BME280;10212;42.714;23.310;2023-01-10T05:48:03;94285.41;;;2.96;96.39
20105;BME280;10212;42.714;23.310;2023-01-10T05:58:03;94248.91;;;3.07;95.52
20105;BME280;10212;42.714;23.310;2023-01-10T06:08:04;94272.72;;;3.24;95.13
20105;BME280;10212;42.714;23.310;2023-01-10T06:18:05;94271.47;;;3.20;94.45
20105;BME280;10212;42.714;23.310;2023-01-10T06:28:10;94270.47;;;3.06;95.74
20105;BME280;10212;42.714;23.310;2023-01-10T06:38:11;94269.16;;;3.10;96.07
20105;BME280;10212;42.714;23.310;2023-01-10T06:48:12;94267.63;;;2.86;98.76
20105;BME280;10212;42.714;23.310;2023-01-10T06:58:12;94272.41;;;2.74;100.00
20105;BME280;10212;42.714;23.310;2023-01-10T07:08:17;94241.69;;;2.87;100.00
20105;BME280;10212;42.714;23.310;2023-01-10T07:18:17;94229.00;;;3.01;100.00
20105;BME280;10212;42.714;23.310;2023-01-10T07:28:18;94230.06;;;3.07;100.00
20105;BME280;10212;42.714;23.310;2023-01-10T07:38:18;94224.06;;;3.15;100.00
20105;BME280;10212;42.714;23.310;2023-01-10T07:48:19;94229.47;;;3.20;100.00
20105;BME280;10212;42.714;23.310;2023-01-10T07:58:19;94210.09;;;3.09;100.00
20105;BME280;10212;42.714;23.310;2023-01-10T08:08:20;94214.25;;;3.10;100.00
20105;BME280;10212;42.714;23.310;2023-01-10T08:18:21;94214.44;;;3.08;100.00
20105;BME280;10212;42.714;23.310;2023-01-10T08:28:22;94203.19;;;3.09;100.00
20105;BME280;10212;42.714;23.310;2023-01-10T08:38:22;94180.78;;;3.25;100.00
20105;BME280;10212;42.714;23.310;2023-01-10T08:48:23;94171.53;;;3.16;100.00
20105;BME280;10212;42.714;23.310;2023-01-10T08:58:23;94156.06;;;3.16;100.00
20105;BME280;10212;42.714;23.310;2023-01-10T09:08:24;94149.09;;;3.09;100.00
20105;BME280;10212;42.714;23.310;2023-01-10T09:18:25;94155.91;;;3.32;100.00
20105;BME280;10212;42.714;23.310;2023-01-10T09:28:25;94150.38;;;3.57;100.00
20105;BME280;10212;42.714;23.310;2023-01-10T09:38:26;94136.06;;;3.92;100.00
20105;BME280;10212;42.714;23.310;2023-01-10T09:58:36;94108.41;;;4.07;100.00
20105;BME280;10212;42.714;23.310;2023-01-10T10:08:43;94087.84;;;3.70;100.00
20105;BME280;10212;42.714;23.310;2023-01-10T10:39:12;94068.78;;;3.43;100.00
20105;BME280;10212;42.714;23.310;2023-01-10T10:49:22;94056.50;;;3.45;100.00
20105;BME280;10212;42.714;23.310;2023-01-10T10:59:29;94052.00;;;3.32;100.00
20105;BME280;10212;42.714;23.310;2023-01-10T11:09:30;94053.28;;;3.21;100.00
20105;BME280;10212;42.714;23.310;2023-01-10T11:19:54;94035.63;;;3.18;100.00
20105;BME280;10212;42.714;23.310;2023-01-10T11:30:00;94034.44;;;3.20;100.00
20105;BME280;10212;42.714;23.310;2023-01-10T11:40:21;94031.03;;;3.13;100.00
20105;BME280;10212;42.714;23.310;2023-01-10T11:50:25;94020.41;;;3.23;100.00
20105;BME280;10212;42.714;23.310;2023-01-10T12:00:37;94027.34;;;3.22;100.00
20105;BME280;10212;42.714;23.310;2023-01-10T12:10:38;94014.03;;;3.41;100.00
20105;BME280;10212;42.714;23.310;2023-01-10T12:20:47;94013.47;;;3.45;100.00
20105;BME280;10212;42.714;23.310;2023-01-10T12:30:48;94024.16;;;3.42;100.00
20105;BME280;10212;42.714;23.310;2023-01-10T12:40:57;94028.44;;;3.57;100.00
20105;BME280;10212;42.714;23.310;2023-01-10T12:51:05;93995.44;;;3.45;100.00
20105;BME280;10212;42.714;23.310;2023-01-10T13:01:11;94020.16;;;3.61;100.00
20105;BME280;10212;42.714;23.310;2023-01-10T13:11:14;94022.25;;;3.73;100.00
20105;BME280;10212;42.714;23.310;2023-01-10T13:21:18;94021.88;;;3.76;100.00
20105;BME280;10212;42.714;23.310;2023-01-10T13:31:27;94037.19;;;3.84;100.00
20105;BME280;10212;42.714;23.310;2023-01-10T13:52:29;94037.34;;;3.76;100.00
20105;BME280;10212;42.714;23.310;2023-01-10T14:02:30;94038.56;;;3.80;100.00
20105;BME280;10212;42.714;23.310;2023-01-10T14:12:50;94044.03;;;3.70;100.00
20105;BME280;10212;42.714;23.310;2023-01-10T14:33:15;94059.69;;;3.47;100.00
20105;BME280;10212;42.714;23.310;2023-01-10T14:43:24;94059.19;;;3.36;100.00
20105;BME280;10212;42.714;23.310;2023-01-10T14:53:28;94074.34;;;3.24;100.00
20105;BME280;10212;42.714;23.310;2023-01-10T15:03:28;94083.56;;;3.19;100.00
20105;BME280;10212;42.714;23.310;2023-01-10T15:13:33;94104.94;;;3.12;100.00
20105;BME280;10212;42.714;23.310;2023-01-10T15:23:36;94125.38;;;2.99;100.00
20105;BME280;10212;42.714;23.310;2023-01-10T15:33:44;94132.28;;;2.83;100.00
20105;BME280;10212;42.714;23.310;2023-01-10T15:43:45;94146.13;;;2.52;100.00
20105;BME280;10212;42.714;23.310;2023-01-10T16:04:12;94202.66;;;1.75;100.00
20105;BME280;10212;42.714;23.310;2023-01-10T16:14:14;94222.22;;;1.04;100.00
20105;BME280;10212;42.714;23.310;2023-01-10T16:24:20;94230.97;;;0.53;100.00
20105;BME280;10212;42.714;23.310;2023-01-10T16:34:21;94254.69;;;0.05;100.00
20105;BME280;10212;42.714;23.310;2023-01-10T16:44:24;94258.16;;;-0.13;100.00
20105;BME280;10212;42.714;23.310;2023-01-10T16:54:24;94268.75;;;-0.16;100.00
20105;BME280;10212;42.714;23.310;2023-01-10T17:04:28;94279.28;;;-0.19;100.00
20105;BME280;10212;42.714;23.310;2023-01-10T17:14:34;94285.88;;;-0.08;100.00
20105;BME280;10212;42.714;23.310;2023-01-10T17:24:35;94299.16;;;-0.13;100.00
20105;BME280;10212;42.714;23.310;2023-01-10T17:34:35;94309.13;;;-0.02;100.00
20105;BME280;10212;42.714;23.310;2023-01-10T17:44:37;94302.56;;;-0.04;100.00
20105;BME280;10212;42.714;23.310;2023-01-10T17:54:38;94333.50;;;0.03;100.00
20105;BME280;10212;42.714;23.310;2023-01-10T18:04:38;94332.69;;;0.02;100.00
20105;BME280;10212;42.714;23.310;2023-01-10T18:14:39;94337.31;;;-0.02;100.00
20105;BME280;10212;42.714;23.310;2023-01-10T18:24:40;94345.53;;;0.10;100.00
20105;BME280;10212;42.714;23.310;2023-01-10T18:34:42;94343.50;;;0.22;100.00
20105;BME280;10212;42.714;23.310;2023-01-10T18:44:42;94338.34;;;0.22;100.00
20105;BME280;10212;42.714;23.310;2023-01-10T18:54:44;94354.06;;;0.19;100.00
20105;BME280;10212;42.714;23.310;2023-01-10T19:04:46;94365.41;;;0.17;100.00
20105;BME280;10212;42.714;23.310;2023-01-10T19:14:47;94372.34;;;0.25;100.00
20105;BME280;10212;42.714;23.310;2023-01-10T19:24:50;94373.31;;;0.32;100.00
20105;BME280;10212;42.714;23.310;2023-01-10T19:34:54;94382.63;;;0.41;100.00
20105;BME280;10212;42.714;23.310;2023-01-10T19:44:55;94392.44;;;0.54;100.00
20105;BME280;10212;42.714;23.310;2023-01-10T19:54:55;94398.56;;;0.62;100.00
20105;BME280;10212;42.714;23.310;2023-01-10T20:04:56;94403.53;;;0.71;100.00
20105;BME280;10212;42.714;23.310;2023-01-10T20:14:57;94418.78;;;0.81;100.00
20105;BME280;10212;42.714;23.310;2023-01-10T20:24:57;94416.69;;;0.85;100.00
20105;BME280;10212;42.714;23.310;2023-01-10T20:34:59;94417.03;;;0.82;100.00
20105;BME280;10212;42.714;23.310;2023-01-10T20:45:00;94432.75;;;0.87;100.00
20105;BME280;10212;42.714;23.310;2023-01-10T20:55:02;94441.75;;;0.91;100.00
20105;BME280;10212;42.714;23.310;2023-01-10T21:05:03;94458.13;;;1.07;100.00
20105;BME280;10212;42.714;23.310;2023-01-10T21:15:04;94474.50;;;1.14;100.00
20105;BME280;10212;42.714;23.310;2023-01-10T21:25:04;94489.13;;;1.30;100.00
20105;BME280;10212;42.714;23.310;2023-01-10T21:35:05;94505.00;;;1.17;100.00
20105;BME280;10212;42.714;23.310;2023-01-10T21:45:06;94516.09;;;1.18;100.00
20105;BME280;10212;42.714;23.310;2023-01-10T21:55:08;94527.78;;;1.12;100.00
20105;BME280;10212;42.714;23.310;2023-01-10T22:05:09;94518.81;;;1.25;100.00
20105;BME280;10212;42.714;23.310;2023-01-10T22:15:10;94543.41;;;1.27;100.00
20105;BME280;10212;42.714;23.310;2023-01-10T22:25:11;94546.44;;;1.31;100.00
20105;BME280;10212;42.714;23.310;2023-01-10T22:35:11;94540.31;;;1.15;100.00
20105;BME280;10212;42.714;23.310;2023-01-10T22:45:15;94548.34;;;1.12;100.00
20105;BME280;10212;42.714;23.310;2023-01-10T22:55:18;94552.66;;;1.12;100.00
20105;BME280;10212;42.714;23.310;2023-01-10T23:05:18;94556.69;;;1.14;100.00
20105;BME280;10212;42.714;23.310;2023-01-10T23:15:19;94553.13;;;1.07;100.00
20105;BME280;10212;42.714;23.310;2023-01-10T23:25:19;94548.91;;;0.89;100.00
20105;BME280;10212;42.714;23.310;2023-01-10T23:35:20;94556.84;;;0.61;100.00
20105;BME280;10212;42.714;23.310;2023-01-10T23:45:20;94574.47;;;0.56;100.00
20105;BME280;10212;42.714;23.310;2023-01-10T23:55:21;94587.53;;;0.44;100.00
